Omskiy-141 — UGZK — position and weather

sailwx.info

Track history (hours):
 
Tides and Currents Weather Stations Pressure Air Temp Water Temp Dewpoint Dewpoint Depression Visibility Wind Speed Wind Dir Waves Ship Positions

Omskiy-141

Last reported at 2015-Mar-26 04:24 UTC. Time now 2015-Mar-27 02:02 UTC.
Position N 55°40' E 017°37'.

Length 108 m; draft 2.6 m.

Type: Cargo ship. MMSI: 273310600.

Date/timePositionNaut miles runAvg speedWind from/ knotsBaromVisibWave heightAir tempDewpointWater temp
2015-Mar-26 04:24N 55°40' E 017°37'23 7.1
2015-Mar-26 01:08N 55°25' E 017°06'40 6.0
2015-Mar-25 18:28N 54°59' E 016°13'51 6.4
2015-Mar-25 10:31N 54°29' E 015°01'8 7.9
2015-Mar-25 09:33N 54°24' E 014°51'8 8.0
2015-Mar-25 08:33N 54°19' E 014°40'8 8.2
2015-Mar-25 07:33N 54°14' E 014°29'8 8.2
2015-Mar-25 06:33N 54°09' E 014°18'8 7.7
2015-Mar-25 05:33N 54°02' E 014°16'8 8.1
2015-Mar-25 04:33N 53°53' E 014°15'8 8.2
2015-Mar-25 03:33N 53°47' E 014°23'9 9.1
2015-Mar-25 02:33N 53°39' E 014°32'5 5.0
2015-Mar-25 01:32N 53°34' E 014°34'0 0.0
2015-Mar-25 00:31N 53°34' E 014°34'0 0.0
2015-Mar-24 23:31N 53°34' E 014°34'0 0.0
2015-Mar-24 22:16N 53°34' E 014°34'0 0.0
2015-Mar-24 21:31N 53°34' E 014°34'0 0.0
2015-Mar-24 20:31N 53°34' E 014°34'0 0.0
2015-Mar-24 19:31N 53°34' E 014°34'0 0.0
2015-Mar-24 18:31N 53°34' E 014°34'0 0.0
2015-Mar-24 17:31N 53°34' E 014°34'0 0.0
2015-Mar-24 16:31N 53°34' E 014°34'0 0.0
2015-Mar-24 15:31N 53°34' E 014°34'0 0.0
2015-Mar-24 14:31N 53°34' E 014°34'0 0.0
2015-Mar-24 13:31N 53°34' E 014°34'0 0.0
2015-Mar-24 12:31N 53°34' E 014°34'0 0.0
2015-Mar-24 11:31N 53°34' E 014°34'0 0.0
2015-Mar-24 10:25N 53°34' E 014°34'0 0.0
2015-Mar-24 09:28N 53°34' E 014°34'0 0.0
2015-Mar-24 08:31N 53°34' E 014°34'0 0.0
2015-Mar-24 07:31N 53°34' E 014°34'0 0.0
2015-Mar-24 06:31N 53°34' E 014°34'0 0.0
2015-Mar-24 03:25N 53°34' E 014°34'0 0.0
2015-Mar-24 02:31N 53°34' E 014°34'0 0.0
2015-Mar-24 00:04N 53°34' E 014°34'0 0.0
2015-Mar-23 22:22N 53°34' E 014°34'0 0.0
2015-Mar-23 21:25N 53°34' E 014°34'0 0.0
2015-Mar-23 20:28N 53°34' E 014°34'0 0.0
2015-Mar-23 19:28N 53°34' E 014°34'0 0.0
2015-Mar-23 18:31N 53°34' E 014°34'0 0.0
2015-Mar-23 17:31N 53°34' E 014°34'0 0.0
2015-Mar-23 16:31N 53°34' E 014°34'0 0.0
2015-Mar-23 15:28N 53°34' E 014°34'0 0.0
2015-Mar-23 14:31N 53°34' E 014°34'0 0.0
2015-Mar-23 13:31N 53°34' E 014°34'0 0.0
2015-Mar-23 12:31N 53°34' E 014°34'0 0.0
2015-Mar-23 11:31N 53°34' E 014°34'0 0.1
2015-Mar-23 10:25N 53°34' E 014°34'0 0.0
2015-Mar-23 09:31N 53°34' E 014°34'0 0.0
2015-Mar-23 08:31N 53°34' E 014°34'0 0.0
2015-Mar-23 07:31N 53°34' E 014°34'0 0.0
2015-Mar-23 06:33N 53°34' E 014°34'0 0.0
2015-Mar-23 05:33N 53°34' E 014°34'0 0.0
2015-Mar-23 03:14N 53°34' E 014°34'1 1.6
2015-Mar-23 02:33N 53°35' E 014°35'7 7.0
2015-Mar-23 01:33N 53°41' E 014°30'8 8.1
2015-Mar-23 00:33N 53°48' E 014°21'6 6.0
2015-Mar-22 23:33N 53°53' E 014°16'6 5.6
2015-Mar-22 22:33N 53°58' E 014°15'6 6.3
2015-Mar-22 21:33N 54°03' E 014°22'8 8.2
2015-Mar-22 20:33N 54°08' E 014°34'  
2015-Mar-18 23:33N 56°01' E 018°20'9 8.6
2015-Mar-18 22:33N 55°55' E 018°08'9 8.6
2015-Mar-18 21:33N 55°49' E 017°57'9 8.6
2015-Mar-18 20:33N 55°44' E 017°45'11 8.6
2015-Mar-18 19:20N 55°37' E 017°31'7 8.4
2015-Mar-18 18:30N 55°32' E 017°22'8 8.3
2015-Mar-18 17:33N 55°27' E 017°12'107 8.0
2015-Mar-18 04:13N 54°16' E 014°53'7 8.4
2015-Mar-18 03:23N 54°12' E 014°44'7 8.4
2015-Mar-18 02:33N 54°08' E 014°34'8 8.5
2015-Mar-18 01:33N 54°03' E 014°22'7 7.5
2015-Mar-18 00:34N 53°56' E 014°16'8 8.4
2015-Mar-17 23:33N 53°48' E 014°21'9 8.9
2015-Mar-17 22:34N 53°41' E 014°30'7 0.5
2015-Mar-17 07:26N 53°34' E 014°34'0 0.0
2015-Mar-17 03:29N 53°34' E 014°34'  
Track history (hours):
 
Tides and Currents Weather Stations Pressure Air Temp Water Temp Dewpoint Dewpoint Depression Visibility Wind Speed Wind Dir Waves Ship Positions

Omskiy-141

Last reported at 2015-Mar-26 04:24 UTC. Time now 2015-Mar-27 02:02 UTC.
Position N 55°40' E 017°37'.

Length 108 m; draft 2.6 m.

Type: Cargo ship. MMSI: 273310600.

Date/timePositionNaut miles runAvg speedWind from/ knotsBaromVisibWave heightAir tempDewpointWater temp
2015-Mar-26 04:24N 55°40' E 017°37'23 7.1
2015-Mar-26 01:08N 55°25' E 017°06'40 6.0
2015-Mar-25 18:28N 54°59' E 016°13'51 6.4
2015-Mar-25 10:31N 54°29' E 015°01'8 7.9
2015-Mar-25 09:33N 54°24' E 014°51'8 8.0
2015-Mar-25 08:33N 54°19' E 014°40'8 8.2
2015-Mar-25 07:33N 54°14' E 014°29'8 8.2
2015-Mar-25 06:33N 54°09' E 014°18'8 7.7
2015-Mar-25 05:33N 54°02' E 014°16'8 8.1
2015-Mar-25 04:33N 53°53' E 014°15'8 8.2
2015-Mar-25 03:33N 53°47' E 014°23'9 9.1
2015-Mar-25 02:33N 53°39' E 014°32'5 5.0
2015-Mar-25 01:32N 53°34' E 014°34'0 0.0
2015-Mar-25 00:31N 53°34' E 014°34'0 0.0
2015-Mar-24 23:31N 53°34' E 014°34'0 0.0
2015-Mar-24 22:16N 53°34' E 014°34'0 0.0
2015-Mar-24 21:31N 53°34' E 014°34'0 0.0
2015-Mar-24 20:31N 53°34' E 014°34'0 0.0
2015-Mar-24 19:31N 53°34' E 014°34'0 0.0
2015-Mar-24 18:31N 53°34' E 014°34'0 0.0
2015-Mar-24 17:31N 53°34' E 014°34'0 0.0
2015-Mar-24 16:31N 53°34' E 014°34'0 0.0
2015-Mar-24 15:31N 53°34' E 014°34'0 0.0
2015-Mar-24 14:31N 53°34' E 014°34'0 0.0
2015-Mar-24 13:31N 53°34' E 014°34'0 0.0
2015-Mar-24 12:31N 53°34' E 014°34'0 0.0
2015-Mar-24 11:31N 53°34' E 014°34'0 0.0
2015-Mar-24 10:25N 53°34' E 014°34'0 0.0
2015-Mar-24 09:28N 53°34' E 014°34'0 0.0
2015-Mar-24 08:31N 53°34' E 014°34'0 0.0
2015-Mar-24 07:31N 53°34' E 014°34'0 0.0
2015-Mar-24 06:31N 53°34' E 014°34'0 0.0
2015-Mar-24 03:25N 53°34' E 014°34'0 0.0
2015-Mar-24 02:31N 53°34' E 014°34'0 0.0
2015-Mar-24 00:04N 53°34' E 014°34'0 0.0
2015-Mar-23 22:22N 53°34' E 014°34'0 0.0
2015-Mar-23 21:25N 53°34' E 014°34'0 0.0
2015-Mar-23 20:28N 53°34' E 014°34'0 0.0
2015-Mar-23 19:28N 53°34' E 014°34'0 0.0
2015-Mar-23 18:31N 53°34' E 014°34'0 0.0
2015-Mar-23 17:31N 53°34' E 014°34'0 0.0
2015-Mar-23 16:31N 53°34' E 014°34'0 0.0
2015-Mar-23 15:28N 53°34' E 014°34'0 0.0
2015-Mar-23 14:31N 53°34' E 014°34'0 0.0
2015-Mar-23 13:31N 53°34' E 014°34'0 0.0
2015-Mar-23 12:31N 53°34' E 014°34'0 0.0
2015-Mar-23 11:31N 53°34' E 014°34'0 0.1
2015-Mar-23 10:25N 53°34' E 014°34'0 0.0
2015-Mar-23 09:31N 53°34' E 014°34'0 0.0
2015-Mar-23 08:31N 53°34' E 014°34'0 0.0
2015-Mar-23 07:31N 53°34' E 014°34'0 0.0
2015-Mar-23 06:33N 53°34' E 014°34'0 0.0
2015-Mar-23 05:33N 53°34' E 014°34'0 0.0
2015-Mar-23 03:14N 53°34' E 014°34'1 1.6
2015-Mar-23 02:33N 53°35' E 014°35'7 7.0
2015-Mar-23 01:33N 53°41' E 014°30'8 8.1
2015-Mar-23 00:33N 53°48' E 014°21'6 6.0
2015-Mar-22 23:33N 53°53' E 014°16'6 5.6
2015-Mar-22 22:33N 53°58' E 014°15'6 6.3
2015-Mar-22 21:33N 54°03' E 014°22'8 8.2
2015-Mar-22 20:33N 54°08' E 014°34'  
2015-Mar-18 23:33N 56°01' E 018°20'9 8.6
2015-Mar-18 22:33N 55°55' E 018°08'9 8.6
2015-Mar-18 21:33N 55°49' E 017°57'9 8.6
2015-Mar-18 20:33N 55°44' E 017°45'11 8.6
2015-Mar-18 19:20N 55°37' E 017°31'7 8.4
2015-Mar-18 18:30N 55°32' E 017°22'8 8.3
2015-Mar-18 17:33N 55°27' E 017°12'107 8.0
2015-Mar-18 04:13N 54°16' E 014°53'7 8.4
2015-Mar-18 03:23N 54°12' E 014°44'7 8.4
2015-Mar-18 02:33N 54°08' E 014°34'8 8.5
2015-Mar-18 01:33N 54°03' E 014°22'7 7.5
2015-Mar-18 00:34N 53°56' E 014°16'8 8.4
2015-Mar-17 23:33N 53°48' E 014°21'9 8.9
2015-Mar-17 22:34N 53°41' E 014°30'7 0.5
2015-Mar-17 07:26N 53°34' E 014°34'0 0.0
2015-Mar-17 03:29N 53°34' E 014°34'  

Dump ship's entire track history